Time;durP1;ratioP1;P1;durP2;ratioP2;P2;SDS_P1;SDS_P2;PMS_P1;PMS_P2;Temp;Humidity;BMP_temperature;BMP_pressure;BME280_temperature;BME280_humidity;BME280_pressure;Samples;Min_cycle;Max_cycle;Signal;HPM_P1;HPM_P2
2024/01/18 00:00:53;;;;;;;21.07;12.23;;;-1.00;99.90;;;;;;4756553;30;20327;-94
2024/01/18 00:03:19;;;;;;;20.87;12.03;;;-1.00;99.90;;;;;;4749417;30;20243;-94
2024/01/18 00:05:44;;;;;;;19.87;11.37;;;-1.00;99.90;;;;;;4748779;30;20199;-92
2024/01/18 00:08:10;;;;;;;32.60;16.87;;;-1.10;99.90;;;;;;4772169;30;20188;-94
2024/01/18 00:10:37;;;;;;;28.33;15.83;;;-1.00;99.90;;;;;;4756209;30;20218;-94
2024/01/18 00:13:03;;;;;;;22.20;12.60;;;-1.00;99.90;;;;;;4755564;30;20226;-94
2024/01/18 00:15:29;;;;;;;18.00;10.90;;;-1.10;99.90;;;;;;5047599;24;21059;-93
2024/01/18 00:17:54;;;;;;;15.70;10.70;;;-1.00;99.90;;;;;;4741494;30;20215;-90
2024/01/18 00:20:22;;;;;;;19.23;11.40;;;-1.00;99.90;;;;;;4749218;30;20185;-95
2024/01/18 00:22:48;;;;;;;15.50;10.80;;;-1.00;99.90;;;;;;4747323;30;20713;-95
2024/01/18 00:25:13;;;;;;;19.23;11.20;;;-1.00;99.90;;;;;;4731628;30;20196;-94
2024/01/18 00:27:40;;;;;;;22.57;11.60;;;-1.00;99.90;;;;;;4754602;30;20193;-94
2024/01/18 00:30:06;;;;;;;22.80;14.03;;;-0.90;99.90;;;;;;4747054;30;20196;-94
2024/01/18 00:32:32;;;;;;;22.73;12.03;;;-0.90;99.90;;;;;;4738442;30;20200;-94
2024/01/18 00:34:58;;;;;;;17.97;11.33;;;-0.90;99.90;;;;;;4736709;30;20197;-94
2024/01/18 00:37:24;;;;;;;21.13;10.67;;;-0.90;99.90;;;;;;4749266;30;20551;-94
2024/01/18 00:39:50;;;;;;;20.70;11.90;;;-0.90;99.90;;;;;;4737778;30;20199;-92
2024/01/18 00:42:16;;;;;;;23.27;11.70;;;-0.90;99.90;;;;;;4737892;30;20224;-94
2024/01/18 00:44:42;;;;;;;18.50;11.00;;;-0.90;99.90;;;;;;4746870;30;20182;-94
2024/01/18 00:47:09;;;;;;;21.67;10.97;;;-0.90;99.90;;;;;;4737039;30;20676;-93
2024/01/18 00:49:34;;;;;;;18.50;10.53;;;-0.90;99.90;;;;;;4731989;30;20201;-94
2024/01/18 00:52:02;;;;;;;18.30;11.63;;;-0.90;99.90;;;;;;4746127;30;20189;-93
2024/01/18 00:54:28;;;;;;;19.33;11.50;;;-0.90;99.90;;;;;;4732820;30;20223;-92
2024/01/18 00:56:53;;;;;;;14.87;10.33;;;-0.80;99.90;;;;;;4736843;30;20620;-94
2024/01/18 00:59:20;;;;;;;21.67;11.97;;;-0.90;99.90;;;;;;4730989;30;20632;-93
2024/01/18 01:01:46;;;;;;;18.73;11.23;;;-0.80;99.90;;;;;;4737344;30;20319;-94
2024/01/18 01:04:12;;;;;;;19.23;11.53;;;-0.90;99.90;;;;;;4730674;30;20279;-93
2024/01/18 01:06:38;;;;;;;18.27;11.57;;;-0.90;99.90;;;;;;4754083;30;20228;-92
2024/01/18 01:09:06;;;;;;;23.70;11.70;;;-0.80;99.90;;;;;;4737948;30;20196;-93
2024/01/18 01:11:32;;;;;;;20.40;11.40;;;-0.70;99.90;;;;;;4738327;30;20196;-94
2024/01/18 01:13:57;;;;;;;19.90;11.33;;;-0.70;99.90;;;;;;4730549;30;20204;-92
2024/01/18 01:16:24;;;;;;;16.03;10.73;;;-0.60;99.90;;;;;;4752688;30;20707;-94
2024/01/18 01:18:50;;;;;;;17.83;11.63;;;-0.70;99.90;;;;;;4738069;30;20708;-94
2024/01/18 01:21:16;;;;;;;22.63;12.50;;;-0.70;99.90;;;;;;4754062;30;20220;-95
2024/01/18 01:23:48;;;;;;;21.70;12.57;;;-0.70;99.90;;;;;;4740303;30;20280;-94
2024/01/18 01:26:15;;;;;;;22.73;12.77;;;-0.70;99.90;;;;;;4737701;30;20201;-94
2024/01/18 01:28:43;;;;;;;21.10;11.77;;;-0.70;99.90;;;;;;4738849;30;20206;-93
2024/01/18 01:31:08;;;;;;;22.20;11.80;;;-0.70;99.90;;;;;;4741584;30;20211;-94
2024/01/18 01:33:35;;;;;;;19.67;12.20;;;-0.70;99.90;;;;;;4741518;30;20547;-93
2024/01/18 01:36:02;;;;;;;19.03;12.53;;;-0.70;99.90;;;;;;4741540;30;20698;-93
2024/01/18 01:38:30;;;;;;;18.00;11.97;;;-0.70;99.90;;;;;;4750006;30;20569;-93
2024/01/18 01:40:56;;;;;;;19.80;12.30;;;-0.80;99.90;;;;;;4741234;30;20235;-93
2024/01/18 01:43:23;;;;;;;23.60;12.47;;;-0.80;99.90;;;;;;4736406;30;20206;-94
2024/01/18 01:45:48;;;;;;;19.73;12.17;;;-0.90;99.90;;;;;;4748199;30;20211;-94
2024/01/18 01:48:17;;;;;;;20.10;12.80;;;-0.90;99.90;;;;;;4733943;30;20628;-94
2024/01/18 01:50:42;;;;;;;19.53;12.70;;;-0.90;99.90;;;;;;4734047;30;20200;-93
2024/01/18 01:53:10;;;;;;;20.63;13.00;;;-0.90;99.90;;;;;;4738035;30;20537;-93
2024/01/18 01:55:39;;;;;;;23.83;12.80;;;-0.90;99.90;;;;;;4738418;30;20205;-92
2024/01/18 01:58:12;;;;;;;21.37;12.70;;;-0.90;99.90;;;;;;4734149;30;20583;-92
2024/01/18 02:00:38;;;;;;;24.03;12.80;;;-0.80;99.90;;;;;;4735044;30;20231;-92
2024/01/18 02:03:04;;;;;;;22.33;13.23;;;-0.80;99.90;;;;;;4741298;30;20264;-91
2024/01/18 02:05:30;;;;;;;21.67;11.83;;;-0.80;99.90;;;;;;4741920;30;20196;-92
2024/01/18 02:08:02;;;;;;;22.87;12.43;;;-0.80;99.90;;;;;;4755584;30;20203;-94
2024/01/18 02:10:28;;;;;;;20.10;13.17;;;-0.80;99.90;;;;;;4737063;30;20677;-90
2024/01/18 02:12:54;;;;;;;21.70;13.30;;;-0.80;99.90;;;;;;4734341;30;20296;-93
2024/01/18 02:15:21;;;;;;;19.40;13.47;;;-0.80;99.90;;;;;;4736672;30;20211;-93
2024/01/18 02:17:46;;;;;;;20.83;13.40;;;-0.80;99.90;;;;;;4754324;30;20298;-94
2024/01/18 02:20:14;;;;;;;25.07;13.60;;;-0.90;99.90;;;;;;4749778;30;20632;-93
2024/01/18 02:22:44;;;;;;;22.60;13.57;;;-0.90;99.90;;;;;;4740915;30;20561;-94
2024/01/18 02:25:28;;;;;;;25.00;13.17;;;-1.00;99.90;;;;;;4756903;30;20200;-93
2024/01/18 02:27:57;;;;;;;23.00;13.87;;;-1.00;99.90;;;;;;4749364;30;20517;-93
2024/01/18 02:30:23;;;;;;;24.63;13.10;;;-1.00;99.90;;;;;;4756843;30;20218;-93
2024/01/18 02:32:49;;;;;;;22.23;13.30;;;-1.00;99.90;;;;;;4756560;30;20201;-93
2024/01/18 02:35:15;;;;;;;22.93;13.43;;;-1.00;99.90;;;;;;4740119;30;20200;-93
2024/01/18 02:37:41;;;;;;;22.63;13.43;;;-1.00;99.90;;;;;;4756362;30;20203;-93
2024/01/18 02:40:10;;;;;;;23.20;12.87;;;-1.00;99.90;;;;;;4737364;30;20197;-94
2024/01/18 02:42:36;;;;;;;22.60;12.70;;;-1.00;99.90;;;;;;4746079;30;20300;-93
2024/01/18 02:45:03;;;;;;;23.73;13.83;;;-1.00;99.90;;;;;;4740165;30;20299;-93
2024/01/18 02:47:30;;;;;;;22.07;13.53;;;-1.00;99.90;;;;;;4739195;30;20291;-93
2024/01/18 02:50:00;;;;;;;20.83;13.13;;;-1.00;99.90;;;;;;4748868;30;20194;-91
2024/01/18 02:52:26;;;;;;;23.43;13.53;;;-1.00;99.90;;;;;;4740396;30;20227;-93
2024/01/18 02:54:51;;;;;;;23.37;13.90;;;-1.00;99.90;;;;;;4740380;30;20879;-93
2024/01/18 02:57:17;;;;;;;21.63;13.20;;;-1.00;99.90;;;;;;4739888;30;20208;-93
2024/01/18 02:59:44;;;;;;;18.43;12.67;;;-1.10;99.90;;;;;;4732383;30;20198;-93
2024/01/18 03:02:09;;;;;;;22.73;13.30;;;-1.00;99.90;;;;;;4739511;30;20314;-92
2024/01/18 03:04:35;;;;;;;20.10;13.13;;;-1.10;99.90;;;;;;4739693;30;20279;-94
2024/01/18 03:07:01;;;;;;;29.47;14.03;;;-1.10;99.90;;;;;;4732344;30;20212;-91
2024/01/18 03:09:36;;;;;;;23.33;13.27;;;-1.10;99.90;;;;;;4755590;30;20192;-93
2024/01/18 03:12:02;;;;;;;24.43;12.83;;;-1.10;99.90;;;;;;4725256;30;20199;-93
2024/01/18 03:14:27;;;;;;;25.53;13.60;;;-1.10;99.90;;;;;;4739589;30;20222;-94
2024/01/18 03:16:53;;;;;;;24.73;15.23;;;-1.10;99.90;;;;;;4738369;30;20252;-94
2024/01/18 03:19:21;;;;;;;20.73;13.50;;;-1.20;99.90;;;;;;4750912;30;20198;-94
2024/01/18 03:21:47;;;;;;;24.93;14.13;;;-1.20;99.90;;;;;;4730254;30;20326;-93
2024/01/18 03:24:13;;;;;;;22.20;14.43;;;-1.20;99.90;;;;;;4755420;30;20626;-93
2024/01/18 03:26:38;;;;;;;20.67;13.63;;;-1.20;99.90;;;;;;4732454;30;20205;-94
2024/01/18 03:29:15;;;;;;;25.93;15.03;;;-1.20;99.90;;;;;;4739290;30;20222;-94
2024/01/18 03:31:41;;;;;;;21.03;13.60;;;-1.20;99.90;;;;;;4754879;30;20192;-91
2024/01/18 03:34:07;;;;;;;24.07;14.07;;;-1.30;99.90;;;;;;4739440;30;20219;-94
2024/01/18 03:36:32;;;;;;;23.70;14.47;;;-1.30;99.90;;;;;;4733276;30;20201;-94
2024/01/18 03:39:00;;;;;;;20.77;14.07;;;-1.20;99.90;;;;;;4738361;30;20206;-94
2024/01/18 03:41:26;;;;;;;20.87;13.50;;;-1.30;99.90;;;;;;4739099;30;20232;-92
2024/01/18 03:43:51;;;;;;;25.30;14.07;;;-1.30;99.90;;;;;;4732184;30;20629;-93
2024/01/18 03:46:17;;;;;;;25.63;13.83;;;-1.20;99.90;;;;;;4748711;30;20197;-94
2024/01/18 03:48:43;;;;;;;19.90;13.40;;;-1.10;99.90;;;;;;4729459;30;20200;-93
2024/01/18 03:51:21;;;;;;;23.50;13.63;;;-1.30;99.90;;;;;;4738904;30;20197;-94
2024/01/18 03:53:46;;;;;;;24.10;14.13;;;-1.30;99.90;;;;;;4754972;30;20224;-94
2024/01/18 03:56:12;;;;;;;23.87;15.30;;;-1.30;99.90;;;;;;4755010;30;20239;-94
2024/01/18 03:58:40;;;;;;;23.17;14.57;;;-1.30;99.90;;;;;;4738828;30;20204;-93
2024/01/18 04:01:07;;;;;;;24.97;14.40;;;-1.30;99.90;;;;;;4751492;30;20225;-94
2024/01/18 04:03:33;;;;;;;22.07;15.20;;;-1.30;99.90;;;;;;4728726;30;20207;-95
2024/01/18 04:05:59;;;;;;;23.10;14.93;;;-1.40;99.90;;;;;;4746372;30;20263;-92
2024/01/18 04:08:24;;;;;;;25.30;15.07;;;-1.40;99.90;;;;;;4754792;30;20512;-95
2024/01/18 04:10:53;;;;;;;24.57;15.37;;;-1.30;99.90;;;;;;4747319;30;20197;-94
2024/01/18 04:13:19;;;;;;;24.83;13.60;;;-1.20;99.90;;;;;;4739108;30;20208;-95
2024/01/18 04:15:45;;;;;;;22.73;14.03;;;-1.20;99.90;;;;;;4747353;30;20233;-94
2024/01/18 04:18:10;;;;;;;24.10;14.03;;;-1.20;99.90;;;;;;4727591;30;20197;-94
2024/01/18 04:20:36;;;;;;;23.73;13.83;;;-1.30;99.90;;;;;;4728297;30;20193;-95
2024/01/18 04:23:02;;;;;;;23.93;15.50;;;-1.30;99.90;;;;;;4738226;30;20593;-94
2024/01/18 04:25:28;;;;;;;22.43;15.10;;;-1.30;99.90;;;;;;4738792;30;20551;-95
2024/01/18 04:27:53;;;;;;;22.90;14.43;;;-1.30;99.90;;;;;;4738447;30;20207;-95
2024/01/18 04:30:26;;;;;;;22.40;14.50;;;-1.30;99.90;;;;;;4754574;30;20192;-94
2024/01/18 04:32:52;;;;;;;21.73;14.63;;;-1.30;99.90;;;;;;4738399;30;20215;-95
2024/01/18 04:35:18;;;;;;;20.40;14.60;;;-1.30;99.90;;;;;;4738526;30;20204;-94
2024/01/18 04:37:44;;;;;;;23.20;14.53;;;-1.30;99.90;;;;;;4738534;30;20698;-94
2024/01/18 04:40:19;;;;;;;27.97;15.47;;;-1.30;99.90;;;;;;4738474;30;20236;-95
2024/01/18 04:42:45;;;;;;;26.03;15.00;;;-1.40;99.90;;;;;;4746695;30;20661;-94
2024/01/18 04:45:11;;;;;;;23.07;15.00;;;-1.40;99.90;;;;;;4727924;30;20199;-95
2024/01/18 04:47:36;;;;;;;28.30;15.90;;;-1.40;99.90;;;;;;4750222;30;20195;-95
2024/01/18 04:50:13;;;;;;;26.17;15.13;;;-1.40;99.90;;;;;;4746447;30;20207;-95
2024/01/18 04:52:41;;;;;;;23.90;14.60;;;-1.40;99.90;;;;;;4738055;30;20202;-93
2024/01/18 04:55:08;;;;;;;26.77;15.67;;;-1.40;99.90;;;;;;4723373;30;20250;-95
2024/01/18 04:57:35;;;;;;;22.37;14.50;;;-1.40;99.90;;;;;;4748597;30;20201;-94
2024/01/18 05:00:02;;;;;;;23.20;14.93;;;-1.40;99.90;;;;;;4738982;30;20224;-95
2024/01/18 05:02:27;;;;;;;23.90;15.87;;;-1.40;99.90;;;;;;4737367;30;20311;-94
2024/01/18 05:04:53;;;;;;;22.63;15.03;;;-1.50;99.90;;;;;;4757571;30;20220;-94
2024/01/18 05:07:19;;;;;;;26.27;16.73;;;-1.50;99.90;;;;;;4749926;30;20201;-95
2024/01/18 05:09:45;;;;;;;27.87;16.43;;;-1.50;99.90;;;;;;4741512;30;20523;-94
2024/01/18 05:12:10;;;;;;;24.70;15.83;;;-1.50;99.90;;;;;;4741444;30;20200;-95
2024/01/18 05:14:36;;;;;;;30.07;15.83;;;-1.50;99.90;;;;;;4757665;30;20249;-95
2024/01/18 05:17:10;;;;;;;26.80;15.13;;;-1.50;99.90;;;;;;4734320;30;20364;-95
2024/01/18 05:19:36;;;;;;;24.40;15.20;;;-1.50;99.90;;;;;;4735086;30;20217;-95
2024/01/18 05:22:04;;;;;;;23.30;14.97;;;-1.60;99.90;;;;;;4731446;30;20681;-94
2024/01/18 05:24:30;;;;;;;27.57;15.93;;;-1.60;99.90;;;;;;4739776;30;20278;-94
2024/01/18 05:26:56;;;;;;;23.43;16.27;;;-1.60;99.90;;;;;;4738771;30;20236;-92
2024/01/18 05:29:22;;;;;;;24.90;15.97;;;-1.60;99.90;;;;;;4738638;30;20572;-95
2024/01/18 05:31:49;;;;;;;29.73;16.03;;;-1.50;99.90;;;;;;4730990;30;20282;-95
2024/01/18 05:34:14;;;;;;;24.97;16.23;;;-1.50;99.90;;;;;;4732958;30;20194;-95
2024/01/18 05:36:40;;;;;;;24.73;15.33;;;-1.50;99.90;;;;;;4731663;30;20359;-95
2024/01/18 05:39:06;;;;;;;22.80;15.13;;;-1.50;99.90;;;;;;4738222;30;20666;-90
2024/01/18 05:41:32;;;;;;;26.77;16.57;;;-1.50;99.90;;;;;;4732396;30;20244;-94
2024/01/18 05:43:58;;;;;;;28.93;17.63;;;-1.50;99.90;;;;;;4739592;30;20207;-95
2024/01/18 05:46:24;;;;;;;26.80;17.20;;;-1.50;99.90;;;;;;4721993;30;20197;-95
2024/01/18 05:48:50;;;;;;;28.27;18.13;;;-1.50;99.90;;;;;;4729007;30;20271;-93
2024/01/18 05:51:16;;;;;;;25.70;16.87;;;-1.50;99.90;;;;;;4738937;30;20212;-95
2024/01/18 05:53:42;;;;;;;29.57;17.97;;;-1.60;99.90;;;;;;4738898;30;20650;-94
2024/01/18 05:56:08;;;;;;;26.90;17.27;;;-1.60;99.90;;;;;;4722624;30;20201;-95
2024/01/18 05:58:34;;;;;;;26.70;16.13;;;-1.50;99.90;;;;;;4734815;30;20657;-95
2024/01/18 06:01:01;;;;;;;27.80;17.10;;;-1.50;99.90;;;;;;4729171;30;20194;-95
2024/01/18 06:03:29;;;;;;;25.00;16.70;;;-1.50;99.90;;;;;;4721196;30;20206;-95
2024/01/18 06:05:58;;;;;;;27.50;16.87;;;-1.50;99.90;;;;;;4722655;30;20194;-95
2024/01/18 06:08:24;;;;;;;24.90;16.73;;;-1.60;99.90;;;;;;4722325;30;20194;-95
2024/01/18 06:10:51;;;;;;;28.30;17.20;;;-1.50;99.90;;;;;;4722155;30;20256;-93
2024/01/18 06:13:17;;;;;;;24.77;15.83;;;-1.50;99.90;;;;;;4737970;30;20205;-96
2024/01/18 06:15:43;;;;;;;27.47;15.93;;;-1.50;99.90;;;;;;4726667;30;20755;-95
2024/01/18 06:18:08;;;;;;;32.20;18.10;;;-1.50;99.90;;;;;;4723137;30;20197;-96
2024/01/18 06:20:35;;;;;;;22.53;15.93;;;-1.50;99.90;;;;;;4739094;30;20201;-96
2024/01/18 06:23:01;;;;;;;23.93;16.17;;;-1.50;99.90;;;;;;4748615;30;20234;-95
2024/01/18 06:25:27;;;;;;;24.43;16.30;;;-1.50;99.90;;;;;;4735469;30;20193;-95
2024/01/18 06:27:53;;;;;;;28.87;16.63;;;-1.60;99.90;;;;;;4724616;30;20710;-96
2024/01/18 06:30:19;;;;;;;27.10;16.53;;;-1.50;99.90;;;;;;4736676;30;20249;-95
2024/01/18 06:32:51;;;;;;;25.53;16.47;;;-1.60;99.90;;;;;;4730214;30;20202;-96
2024/01/18 06:35:16;;;;;;;26.53;17.63;;;-1.60;99.90;;;;;;4743304;30;20207;-95
2024/01/18 06:37:42;;;;;;;24.03;16.20;;;-1.60;99.90;;;;;;4749299;30;20583;-92
2024/01/18 06:40:09;;;;;;;25.83;17.20;;;-1.60;99.90;;;;;;4749483;30;20659;-96
2024/01/18 06:42:38;;;;;;;24.80;17.37;;;-1.60;99.90;;;;;;4727432;30;20692;-95
2024/01/18 06:45:04;;;;;;;29.73;17.60;;;-1.60;99.90;;;;;;4725987;30;20204;-96
2024/01/18 06:47:30;;;;;;;24.60;17.10;;;-1.60;99.90;;;;;;4726229;30;20199;-94
2024/01/18 06:49:56;;;;;;;26.40;16.33;;;-1.60;99.90;;;;;;4738475;30;20200;-95
2024/01/18 06:52:23;;;;;;;27.37;17.50;;;-1.60;99.90;;;;;;4738485;30;20196;-96
2024/01/18 06:54:49;;;;;;;26.13;17.10;;;-1.60;99.90;;;;;;4738637;30;20220;-95
2024/01/18 06:57:15;;;;;;;27.93;17.57;;;-1.60;99.90;;;;;;4738307;30;20263;-96
2024/01/18 06:59:47;;;;;;;25.10;17.20;;;-1.60;99.90;;;;;;4736445;30;20201;-95
2024/01/18 07:02:19;;;;;;;26.70;17.33;;;-1.60;99.90;;;;;;4728963;30;20232;-96
2024/01/18 07:04:45;;;;;;;27.00;17.60;;;-1.60;99.90;;;;;;4739253;30;20622;-94
2024/01/18 07:07:11;;;;;;;25.43;16.57;;;-1.60;99.90;;;;;;4732935;30;20208;-94
2024/01/18 07:09:37;;;;;;;26.17;17.23;;;-1.70;99.90;;;;;;4733326;30;20197;-95
2024/01/18 07:12:13;;;;;;;27.53;17.50;;;-1.70;99.90;;;;;;4722605;30;20215;-92
2024/01/18 07:14:39;;;;;;;29.57;16.87;;;-1.70;99.90;;;;;;4745278;30;20275;-94
2024/01/18 07:17:04;;;;;;;28.23;17.90;;;-1.70;99.90;;;;;;4743520;30;20604;-94
2024/01/18 07:19:30;;;;;;;29.10;17.40;;;-1.70;99.90;;;;;;4737985;30;20217;-94
2024/01/18 07:22:03;;;;;;;29.37;18.37;;;-1.70;99.90;;;;;;4737612;30;20225;-91
2024/01/18 07:24:30;;;;;;;27.93;18.07;;;-1.70;99.90;;;;;;4737805;30;20197;-94
2024/01/18 07:26:57;;;;;;;27.07;18.17;;;-1.70;99.90;;;;;;4722192;30;20622;-95
2024/01/18 07:29:23;;;;;;;28.90;18.50;;;-1.70;99.90;;;;;;4742549;30;20193;-94
2024/01/18 07:31:58;;;;;;;31.33;18.53;;;-1.70;99.90;;;;;;4739917;30;20196;-93
2024/01/18 07:34:24;;;;;;;37.43;18.30;;;-1.70;99.90;;;;;;4722274;30;20287;-93
2024/01/18 07:36:50;;;;;;;31.53;19.43;;;-1.70;99.90;;;;;;4721680;30;20280;-92
2024/01/18 07:39:15;;;;;;;27.10;18.60;;;-1.70;99.90;;;;;;4744881;30;20193;-93
2024/01/18 07:41:43;;;;;;;30.20;19.63;;;-1.70;99.90;;;;;;4721781;30;20221;-94
2024/01/18 07:44:09;;;;;;;31.00;19.50;;;-1.70;99.90;;;;;;4718556;30;20279;-94
2024/01/18 07:46:35;;;;;;;31.20;18.87;;;-1.70;99.90;;;;;;4725669;30;20612;-94
2024/01/18 07:49:01;;;;;;;31.83;19.37;;;-1.80;99.90;;;;;;4737057;30;20279;-92
2024/01/18 07:51:28;;;;;;;29.03;17.80;;;-1.80;99.90;;;;;;4734511;30;20521;-93
2024/01/18 07:53:53;;;;;;;29.47;18.17;;;-1.80;99.90;;;;;;4723255;30;20197;-93
2024/01/18 07:56:19;;;;;;;25.60;17.83;;;-1.80;99.90;;;;;;4721898;30;21035;-93
2024/01/18 07:58:45;;;;;;;26.37;18.10;;;-1.80;99.90;;;;;;4737583;30;20197;-92
2024/01/18 08:01:10;;;;;;;28.93;17.57;;;-1.90;99.90;;;;;;4728576;30;20256;-92
2024/01/18 08:03:36;;;;;;;26.80;18.47;;;-1.90;99.90;;;;;;4737205;30;20565;-93
2024/01/18 08:06:02;;;;;;;28.70;18.23;;;-1.90;99.90;;;;;;4728731;30;20194;-91
2024/01/18 08:08:28;;;;;;;29.53;17.93;;;-1.90;99.90;;;;;;4737135;30;20259;-93
2024/01/18 08:10:54;;;;;;;26.80;17.07;;;-2.00;99.90;;;;;;4721365;30;20203;-92
2024/01/18 08:13:28;;;;;;;25.87;18.27;;;-2.00;99.90;;;;;;4744334;30;20197;-92
2024/01/18 08:15:56;;;;;;;26.87;18.17;;;-2.00;99.90;;;;;;4727538;30;20665;-92
2024/01/18 08:18:24;;;;;;;29.33;17.97;;;-2.00;99.90;;;;;;4749186;30;20625;-92
2024/01/18 08:20:50;;;;;;;29.40;18.13;;;-2.00;99.90;;;;;;4723644;30;20201;-93
2024/01/18 08:23:18;;;;;;;29.20;18.37;;;-2.00;99.90;;;;;;4718234;30;20198;-92
2024/01/18 08:25:44;;;;;;;30.23;18.20;;;-2.00;99.90;;;;;;4748614;30;20193;-92
2024/01/18 08:28:13;;;;;;;32.53;18.70;;;-2.10;99.90;;;;;;4721116;30;20253;-89
2024/01/18 08:30:40;;;;;;;30.03;19.20;;;-2.10;99.90;;;;;;4750666;30;20185;-89
2024/01/18 08:33:08;;;;;;;26.50;18.77;;;-2.10;99.90;;;;;;4736384;30;20272;-90
2024/01/18 08:35:34;;;;;;;27.83;17.70;;;-2.10;99.90;;;;;;4727217;30;20216;-90
2024/01/18 08:38:00;;;;;;;28.80;18.50;;;-2.20;99.90;;;;;;4721669;30;20193;-90
2024/01/18 08:40:26;;;;;;;27.70;18.77;;;-2.20;99.90;;;;;;4736616;30;20708;-90
2024/01/18 08:42:52;;;;;;;29.20;19.17;;;-2.10;99.90;;;;;;4744301;30;20225;-90
2024/01/18 08:45:20;;;;;;;28.37;18.17;;;-2.10;99.90;;;;;;4749505;30;20193;-89
2024/01/18 08:47:47;;;;;;;24.70;17.67;;;-2.10;99.90;;;;;;4720575;30;20516;-90
2024/01/18 08:50:15;;;;;;;32.33;18.70;;;-2.20;99.90;;;;;;4721078;30;20198;-90
2024/01/18 08:52:44;;;;;;;31.77;19.60;;;-2.10;99.90;;;;;;4720925;30;20193;-88
2024/01/18 08:55:09;;;;;;;29.13;18.87;;;-2.10;99.90;;;;;;4736687;30;20191;-89
2024/01/18 08:57:35;;;;;;;27.70;18.77;;;-2.10;99.90;;;;;;4720993;30;20201;-89
2024/01/18 09:00:01;;;;;;;29.13;19.53;;;-2.10;99.90;;;;;;4736676;30;20267;-90
2024/01/18 09:02:30;;;;;;;31.40;20.07;;;-2.10;99.90;;;;;;4736152;30;20229;-89
2024/01/18 09:04:56;;;;;;;31.97;19.77;;;-2.10;99.90;;;;;;4722380;30;20201;-90
2024/01/18 09:07:23;;;;;;;29.67;18.07;;;-2.20;99.90;;;;;;4754040;30;20204;-90
2024/01/18 09:09:49;;;;;;;31.37;19.53;;;-2.20;99.90;;;;;;4722987;30;20196;-90
2024/01/18 09:12:15;;;;;;;34.43;21.30;;;-2.20;99.90;;;;;;4720697;30;20197;-89
2024/01/18 09:14:42;;;;;;;27.67;18.43;;;-2.20;99.90;;;;;;4720858;30;20637;-90
2024/01/18 09:17:09;;;;;;;29.57;19.60;;;-2.20;99.90;;;;;;4739275;30;20240;-88
2024/01/18 09:19:38;;;;;;;29.10;19.57;;;-2.20;99.90;;;;;;4747208;30;20189;-90
2024/01/18 09:22:03;;;;;;;29.33;18.97;;;-2.20;99.90;;;;;;4737297;30;20276;-90
2024/01/18 09:24:33;;;;;;;34.80;21.63;;;-2.10;99.90;;;;;;4738207;30;20200;-91
2024/01/18 09:26:59;;;;;;;31.33;20.60;;;-2.00;99.90;;;;;;4721127;30;20537;-91
2024/01/18 09:29:24;;;;;;;30.97;20.53;;;-1.90;99.90;;;;;;4736518;30;20630;-91
2024/01/18 09:31:50;;;;;;;29.37;19.60;;;-1.80;99.90;;;;;;4744667;30;20204;-91
2024/01/18 09:34:17;;;;;;;30.97;19.70;;;-1.70;99.90;;;;;;4742692;30;20193;-89
2024/01/18 09:36:43;;;;;;;36.90;20.33;;;-1.60;99.90;;;;;;4734820;30;20200;-92
2024/01/18 09:39:15;;;;;;;34.10;20.67;;;-1.50;99.90;;;;;;4713713;30;20208;-91
2024/01/18 09:41:51;;;;;;;28.00;19.47;;;-1.40;99.90;;;;;;4720815;30;20324;-85
2024/01/18 09:44:31;;;;;;;31.93;19.90;;;-1.40;99.90;;;;;;4733395;30;20208;-84
2024/01/18 09:46:57;;;;;;;31.63;20.50;;;-1.30;99.90;;;;;;4746839;30;20215;-89
2024/01/18 09:49:25;;;;;;;27.83;19.03;;;-1.20;99.90;;;;;;4746991;30;20193;-91
2024/01/18 09:51:51;;;;;;;32.10;21.20;;;-1.10;99.90;;;;;;4724179;30;20224;-94
2024/01/18 09:54:42;;;;;;;32.77;20.27;;;-1.00;99.90;;;;;;4728201;30;20227;-96
2024/01/18 09:57:16;;;;;;;30.87;20.00;;;-1.00;99.90;;;;;;4742066;30;20201;-96
2024/01/18 10:00:08;;;;;;;32.10;20.53;;;-0.90;99.90;;;;;;4737844;30;20501;-93
2024/01/18 10:02:33;;;;;;;28.80;18.97;;;-0.80;99.90;;;;;;4753539;30;20221;-87
2024/01/18 10:05:02;;;;;;;30.67;19.20;;;-0.70;99.90;;;;;;4745792;30;20189;-83
2024/01/18 10:07:28;;;;;;;29.40;20.00;;;-0.70;99.90;;;;;;4751529;30;20200;-94
2024/01/18 10:09:54;;;;;;;31.87;20.77;;;-0.80;99.90;;;;;;4741402;30;20200;-94
2024/01/18 10:12:20;;;;;;;29.40;19.03;;;-0.70;99.90;;;;;;4735181;30;20200;-91
2024/01/18 10:14:47;;;;;;;33.70;19.77;;;-0.60;99.90;;;;;;4726447;30;20204;-93
2024/01/18 10:17:23;;;;;;;27.13;18.93;;;-0.50;99.90;;;;;;4723580;30;20336;-94
2024/01/18 10:19:51;;;;;;;29.77;19.70;;;-0.40;99.90;;;;;;4723544;30;20211;-93
2024/01/18 10:22:18;;;;;;;28.70;20.47;;;-0.40;99.90;;;;;;4739073;30;20658;-93
2024/01/18 10:24:44;;;;;;;29.10;19.80;;;-0.30;99.90;;;;;;4730935;30;20202;-91
2024/01/18 10:27:10;;;;;;;28.00;19.30;;;-0.30;99.90;;;;;;4730590;30;20193;-94
2024/01/18 10:29:36;;;;;;;29.13;18.53;;;-0.30;99.90;;;;;;4724090;30;20232;-94
2024/01/18 10:32:03;;;;;;;30.67;18.60;;;-0.30;99.90;;;;;;4724044;30;20201;-95
2024/01/18 10:34:35;;;;;;;25.33;17.17;;;-0.20;99.90;;;;;;4723652;30;20205;-93
2024/01/18 10:37:00;;;;;;;24.87;16.93;;;-0.10;99.90;;;;;;4739342;30;20193;-94
2024/01/18 10:39:26;;;;;;;26.83;18.43;;;0.00;99.90;;;;;;4722810;30;20346;-94
2024/01/18 10:41:52;;;;;;;27.47;18.83;;;-0.10;99.90;;;;;;4723014;30;20229;-93
2024/01/18 10:44:17;;;;;;;27.90;18.47;;;-0.10;99.90;;;;;;4733680;30;20200;-93
2024/01/18 10:46:45;;;;;;;23.63;17.10;;;-0.20;99.90;;;;;;4739719;30;20196;-95
2024/01/18 10:49:12;;;;;;;26.70;17.37;;;-0.10;99.90;;;;;;4755106;30;20216;-93
2024/01/18 10:51:39;;;;;;;26.63;18.10;;;-0.10;99.90;;;;;;4732291;30;20206;-96
2024/01/18 10:54:09;;;;;;;24.03;15.80;;;0.00;99.90;;;;;;4739464;30;20200;-96
2024/01/18 10:56:38;;;;;;;27.90;16.93;;;0.20;99.90;;;;;;4739161;30;20540;-96
2024/01/18 10:59:06;;;;;;;24.17;15.83;;;0.30;99.90;;;;;;4739554;30;20226;-96
2024/01/18 11:01:33;;;;;;;26.27;16.30;;;0.40;99.90;;;;;;4755039;30;20605;-95
2024/01/18 11:04:02;;;;;;;25.70;16.20;;;0.30;99.90;;;;;;4755831;30;20197;-96
2024/01/18 11:06:28;;;;;;;22.70;15.53;;;0.50;99.90;;;;;;4750550;30;20538;-96
2024/01/18 11:08:55;;;;;;;22.23;15.40;;;0.60;99.90;;;;;;4723497;30;20208;-96
2024/01/18 11:11:23;;;;;;;24.50;15.33;;;0.60;99.90;;;;;;4743998;30;20232;-96
2024/01/18 11:13:51;;;;;;;23.63;14.97;;;0.60;99.90;;;;;;4720827;30;20209;-96
2024/01/18 11:16:17;;;;;;;21.03;14.57;;;0.70;99.90;;;;;;4722885;30;20252;-96
2024/01/18 11:18:49;;;;;;;21.67;14.93;;;0.80;99.90;;;;;;4738358;30;20630;-96
2024/01/18 11:21:15;;;;;;;20.40;14.00;;;0.80;99.90;;;;;;4716257;30;20256;-95
2024/01/18 11:23:43;;;;;;;28.03;15.07;;;0.70;99.90;;;;;;4745004;30;20231;-95
2024/01/18 11:26:19;;;;;;;23.13;15.63;;;0.70;99.90;;;;;;4732299;30;20204;-95
2024/01/18 11:28:44;;;;;;;21.37;14.23;;;0.80;99.90;;;;;;4747543;30;20210;-93
2024/01/18 11:31:10;;;;;;;18.97;13.23;;;0.80;99.90;;;;;;4729146;30;20656;-95
2024/01/18 11:33:44;;;;;;;20.83;13.43;;;0.90;99.90;;;;;;4738593;30;20281;-94
2024/01/18 11:36:12;;;;;;;22.53;12.80;;;0.90;99.90;;;;;;4720810;30;20200;-96
2024/01/18 11:38:47;;;;;;;17.20;11.77;;;1.00;99.90;;;;;;4725406;30;20197;-96
2024/01/18 11:41:23;;;;;;;19.80;12.27;;;1.20;99.90;;;;;;4721711;30;20691;-96
2024/01/18 11:44:10;;;;;;;19.93;11.73;;;1.20;99.90;;;;;;4720229;30;20205;-96
2024/01/18 11:46:41;;;;;;;21.13;12.70;;;1.20;99.90;;;;;;4722350;30;20189;-96
2024/01/18 11:49:09;;;;;;;17.23;10.83;;;1.30;99.90;;;;;;4722738;30;20660;-96
2024/01/18 11:51:35;;;;;;;16.10;10.87;;;1.50;99.90;;;;;;4731446;30;20243;-96
2024/01/18 11:54:04;;;;;;;24.20;11.33;;;1.50;99.90;;;;;;4715006;30;20197;-96
2024/01/18 11:56:35;;;;;;;18.13;11.03;;;1.50;99.90;;;;;;4737877;30;20205;-96
2024/01/18 11:59:01;;;;;;;16.10;10.77;;;1.50;99.90;;;;;;4723314;30;20209;-96
2024/01/18 12:01:27;;;;;;;17.47;11.10;;;1.70;99.90;;;;;;4721659;30;20377;-96
2024/01/18 12:03:53;;;;;;;16.57;10.40;;;1.70;99.90;;;;;;4743407;30;20258;-95
2024/01/18 12:06:28;;;;;;;18.80;10.90;;;1.70;99.90;;;;;;4743261;30;20180;-95
2024/01/18 12:09:06;;;;;;;16.50;10.83;;;1.80;99.90;;;;;;4752424;30;20296;-96
2024/01/18 12:11:35;;;;;;;18.63;10.57;;;1.80;99.90;;;;;;4752663;30;20200;-96
2024/01/18 12:14:01;;;;;;;16.83;10.10;;;1.90;99.90;;;;;;4773192;24;20304;-92
2024/01/18 12:16:27;;;;;;;19.20;10.73;;;1.90;99.90;;;;;;4737567;30;20185;-94
2024/01/18 12:18:53;;;;;;;19.90;10.10;;;2.00;99.90;;;;;;4748564;30;20617;-96
2024/01/18 12:21:19;;;;;;;14.13;9.10;;;2.20;99.90;;;;;;4754665;24;20333;-96
2024/01/18 12:23:44;;;;;;;15.57;9.70;;;2.20;99.90;;;;;;4746644;30;20544;-96
2024/01/18 12:26:11;;;;;;;13.07;9.27;;;2.20;99.90;;;;;;4747006;30;20204;-95
2024/01/18 12:28:38;;;;;;;13.90;8.67;;;2.30;99.90;;;;;;4742329;30;20189;-95